Mareta — 9HA3013 — position and weather

sailwx.info

Track history (hours):
 
Tides and Currents Weather Stations Pressure Air Temp Water Temp Dewpoint Dewpoint Depression Visibility Wind Speed Wind Dir Waves Ship Positions

Mareta

Last reported at 2018-Feb-19 20:57 UTC. Time now 2018-Feb-24 02:47 UTC.
Position N 37°45' E 024°20'.

Length 249 m; draft 8.5 m.

Type: Tanker. MMSI: 229038000.

Date/timePositionNaut miles runAvg speedWind from/ knotsBaromVisibWave heightAir tempDewpointWater temp
2018-Feb-19 20:57N 37°45' E 024°20'12 9.7
2018-Feb-19 19:43N 37°37' E 024°10'310.0
2018-Feb-19 19:25N 37°36' E 024°06'510.1
2018-Feb-19 18:57N 37°36' E 024°00'510.4
2018-Feb-19 18:30N 37°36' E 023°54'510.6
2018-Feb-19 18:00N 37°37' E 023°48'5 9.1
2018-Feb-19 17:30N 37°39' E 023°43'510.7
2018-Feb-19 17:00N 37°44' E 023°40'611.2
2018-Feb-19 16:30N 37°49' E 023°37'510.3
2018-Feb-19 16:00N 37°52' E 023°32'1 1.4
2018-Feb-19 15:30N 37°52' E 023°31'0 0.2
2018-Feb-19 15:00N 37°52' E 023°31'0 0.3
2018-Feb-19 14:30N 37°52' E 023°31'0 0.1
2018-Feb-19 14:00N 37°52' E 023°31'0 0.1
2018-Feb-19 13:30N 37°52' E 023°31'0 0.3
2018-Feb-19 13:00N 37°52' E 023°31'0 0.1
2018-Feb-19 12:30N 37°52' E 023°31'0 0.2
2018-Feb-19 12:00N 37°52' E 023°31'0 0.2
2018-Feb-19 11:30N 37°52' E 023°31'0 0.1
2018-Feb-19 11:00N 37°52' E 023°31'0 0.0
2018-Feb-19 10:30N 37°52' E 023°31'0 0.0
2018-Feb-19 10:00N 37°52' E 023°31'0 0.0
2018-Feb-19 09:30N 37°52' E 023°31'0 0.1
2018-Feb-19 09:00N 37°52' E 023°31'0 0.2
2018-Feb-19 08:30N 37°52' E 023°31'0 0.2
2018-Feb-19 08:01N 37°52' E 023°31'2 3.2
2018-Feb-19 07:30N 37°52' E 023°33'510.0
2018-Feb-19 07:00N 37°51' E 023°39'713.7
2018-Feb-19 06:31N 37°45' E 023°43'714.0
2018-Feb-19 06:00N 37°38' E 023°47'714.1
2018-Feb-19 05:30N 37°31' E 023°49'2212.7
2018-Feb-19 03:44N 37°09' E 023°49'43813.0
2018-Feb-17 18:07N 36°20' E 014°45'214.5
2018-Feb-17 18:00N 36°20' E 014°43'714.1
2018-Feb-17 17:30N 36°20' E 014°34'714.0
2018-Feb-17 17:00N 36°22' E 014°26'714.2
2018-Feb-17 16:31N 36°25' E 014°18'714.2
2018-Feb-17 16:00N 36°27' E 014°09'714.0
2018-Feb-17 15:30N 36°30' E 014°01'714.0
2018-Feb-17 15:00N 36°32' E 013°53'714.1
2018-Feb-17 14:30N 36°35' E 013°45'52613.8
2018-Feb-16 00:24N 37°13' E 002°49'4114.0
2018-Feb-15 21:30N 37°05' E 001°60'2914.4
2018-Feb-15 19:28N 36°58' E 001°24'714.5
2018-Feb-15 19:00N 36°56' E 001°16'714.1
2018-Feb-15 18:31N 36°55' E 001°07'714.0
2018-Feb-15 17:58N 36°54' E 000°58'1113.3
2018-Feb-15 17:09N 36°51' E 000°45'213.1
2018-Feb-15 17:00N 36°50' E 000°42'713.4
2018-Feb-15 16:28N 36°49' E 000°33'1712.5
2018-Feb-15 15:08N 36°45' E 000°13'111.5
2018-Feb-15 15:00N 36°45' E 000°11'26412.0
2018-Feb-14 16:56N 36°00' W 005°12'512.2
2018-Feb-14 16:30N 36°02' W 005°18'5 9.1
2018-Feb-14 16:00N 36°05' W 005°22'1 1.4
2018-Feb-14 15:30N 36°05' W 005°23'1 1.3
2018-Feb-14 15:01N 36°04' W 005°23'2 4.1
2018-Feb-14 14:31N 36°02' W 005°23'4 7.3
2018-Feb-14 14:01N 35°59' W 005°25'5 9.6
2018-Feb-14 13:31N 35°57' W 005°30'  
Track history (hours):
 
Tides and Currents Weather Stations Pressure Air Temp Water Temp Dewpoint Dewpoint Depression Visibility Wind Speed Wind Dir Waves Ship Positions

Mareta

Last reported at 2018-Feb-19 20:57 UTC. Time now 2018-Feb-24 02:47 UTC.
Position N 37°45' E 024°20'.

Length 249 m; draft 8.5 m.

Type: Tanker. MMSI: 229038000.

Date/timePositionNaut miles runAvg speedWind from/ knotsBaromVisibWave heightAir tempDewpointWater temp
2018-Feb-19 20:57N 37°45' E 024°20'12 9.7
2018-Feb-19 19:43N 37°37' E 024°10'310.0
2018-Feb-19 19:25N 37°36' E 024°06'510.1
2018-Feb-19 18:57N 37°36' E 024°00'510.4
2018-Feb-19 18:30N 37°36' E 023°54'510.6
2018-Feb-19 18:00N 37°37' E 023°48'5 9.1
2018-Feb-19 17:30N 37°39' E 023°43'510.7
2018-Feb-19 17:00N 37°44' E 023°40'611.2
2018-Feb-19 16:30N 37°49' E 023°37'510.3
2018-Feb-19 16:00N 37°52' E 023°32'1 1.4
2018-Feb-19 15:30N 37°52' E 023°31'0 0.2
2018-Feb-19 15:00N 37°52' E 023°31'0 0.3
2018-Feb-19 14:30N 37°52' E 023°31'0 0.1
2018-Feb-19 14:00N 37°52' E 023°31'0 0.1
2018-Feb-19 13:30N 37°52' E 023°31'0 0.3
2018-Feb-19 13:00N 37°52' E 023°31'0 0.1
2018-Feb-19 12:30N 37°52' E 023°31'0 0.2
2018-Feb-19 12:00N 37°52' E 023°31'0 0.2
2018-Feb-19 11:30N 37°52' E 023°31'0 0.1
2018-Feb-19 11:00N 37°52' E 023°31'0 0.0
2018-Feb-19 10:30N 37°52' E 023°31'0 0.0
2018-Feb-19 10:00N 37°52' E 023°31'0 0.0
2018-Feb-19 09:30N 37°52' E 023°31'0 0.1
2018-Feb-19 09:00N 37°52' E 023°31'0 0.2
2018-Feb-19 08:30N 37°52' E 023°31'0 0.2
2018-Feb-19 08:01N 37°52' E 023°31'2 3.2
2018-Feb-19 07:30N 37°52' E 023°33'510.0
2018-Feb-19 07:00N 37°51' E 023°39'713.7
2018-Feb-19 06:31N 37°45' E 023°43'714.0
2018-Feb-19 06:00N 37°38' E 023°47'714.1
2018-Feb-19 05:30N 37°31' E 023°49'2212.7
2018-Feb-19 03:44N 37°09' E 023°49'43813.0
2018-Feb-17 18:07N 36°20' E 014°45'214.5
2018-Feb-17 18:00N 36°20' E 014°43'714.1
2018-Feb-17 17:30N 36°20' E 014°34'714.0
2018-Feb-17 17:00N 36°22' E 014°26'714.2
2018-Feb-17 16:31N 36°25' E 014°18'714.2
2018-Feb-17 16:00N 36°27' E 014°09'714.0
2018-Feb-17 15:30N 36°30' E 014°01'714.0
2018-Feb-17 15:00N 36°32' E 013°53'714.1
2018-Feb-17 14:30N 36°35' E 013°45'52613.8
2018-Feb-16 00:24N 37°13' E 002°49'4114.0
2018-Feb-15 21:30N 37°05' E 001°60'2914.4
2018-Feb-15 19:28N 36°58' E 001°24'714.5
2018-Feb-15 19:00N 36°56' E 001°16'714.1
2018-Feb-15 18:31N 36°55' E 001°07'714.0
2018-Feb-15 17:58N 36°54' E 000°58'1113.3
2018-Feb-15 17:09N 36°51' E 000°45'213.1
2018-Feb-15 17:00N 36°50' E 000°42'713.4
2018-Feb-15 16:28N 36°49' E 000°33'1712.5
2018-Feb-15 15:08N 36°45' E 000°13'111.5
2018-Feb-15 15:00N 36°45' E 000°11'26412.0
2018-Feb-14 16:56N 36°00' W 005°12'512.2
2018-Feb-14 16:30N 36°02' W 005°18'5 9.1
2018-Feb-14 16:00N 36°05' W 005°22'1 1.4
2018-Feb-14 15:30N 36°05' W 005°23'1 1.3
2018-Feb-14 15:01N 36°04' W 005°23'2 4.1
2018-Feb-14 14:31N 36°02' W 005°23'4 7.3
2018-Feb-14 14:01N 35°59' W 005°25'5 9.6
2018-Feb-14 13:31N 35°57' W 005°30'  

Dump ship's entire track history